Time;durP1;ratioP1;P1;durP2;ratioP2;P2;SDS_P1;SDS_P2;PMS_P1;PMS_P2;Temp;Humidity;BMP_temperature;BMP_pressure;BME280_temperature;BME280_humidity;BME280_pressure;Samples;Min_cycle;Max_cycle;Signal;HPM_P1;HPM_P2
2023/03/26 00:01:45;;;;;;;14.93;4.10;;;10.50;58.70;;;;;;5091090;28;20173;-89
2023/03/26 00:04:12;;;;;;;14.43;4.13;;;10.40;63.50;;;;;;5072044;28;20165;-90
2023/03/26 00:06:40;;;;;;;15.27;4.00;;;10.30;69.40;;;;;;5091957;28;20199;-90
2023/03/26 00:09:08;;;;;;;11.87;3.80;;;10.30;73.00;;;;;;5076924;28;20236;-86
2023/03/26 00:11:48;;;;;;;12.70;2.80;;;10.10;76.60;;;;;;5095906;28;20178;-88
2023/03/26 00:14:17;;;;;;;11.77;3.23;;;10.10;81.40;;;;;;5096045;28;20166;-86
2023/03/26 00:16:58;;;;;;;16.97;3.93;;;10.10;84.80;;;;;;5097689;28;20151;-85
2023/03/26 00:19:47;;;;;;;14.83;3.53;;;10.10;86.10;;;;;;5097724;28;20188;-84
2023/03/26 00:23:09;;;;;;;17.20;4.17;;;10.30;87.50;;;;;;5096061;28;20170;-86
2023/03/26 00:25:49;;;;;;;14.93;4.50;;;10.20;88.40;;;;;;5095223;28;20164;-86
2023/03/26 00:29:07;;;;;;;15.23;3.63;;;10.10;88.90;;;;;;5081144;28;20201;-90
2023/03/26 00:31:57;;;;;;;14.53;4.00;;;10.40;88.40;;;;;;5096090;28;20196;-89
2023/03/26 00:34:25;;;;;;;12.67;3.87;;;10.50;88.00;;;;;;5096630;28;20207;-90
2023/03/26 00:37:02;;;;;;;17.40;4.53;;;10.60;86.20;;;;;;5096257;28;20187;-92
2023/03/26 00:39:41;;;;;;;15.80;5.00;;;10.50;84.90;;;;;;5092700;28;20203;-86
2023/03/26 00:42:08;;;;;;;17.07;4.43;;;10.70;78.10;;;;;;5082560;28;20187;-86
2023/03/26 00:44:40;;;;;;;17.67;4.40;;;10.70;78.10;;;;;;5118424;28;20156;-91
2023/03/26 00:47:15;;;;;;;18.33;5.20;;;10.60;78.30;;;;;;5099738;28;20168;-88
2023/03/26 00:49:40;;;;;;;15.87;4.67;;;10.60;81.10;;;;;;5114611;28;20272;-91
2023/03/26 00:52:08;;;;;;;17.87;5.10;;;10.60;83.10;;;;;;5109211;28;20611;-88
2023/03/26 00:54:35;;;;;;;13.80;4.13;;;10.70;83.50;;;;;;5106563;28;20185;-95
2023/03/26 00:57:05;;;;;;;16.10;4.40;;;10.60;82.20;;;;;;5104393;28;20164;-93
2023/03/26 00:59:34;;;;;;;16.50;5.20;;;10.40;82.90;;;;;;5101177;28;20169;-91
2023/03/26 01:02:05;;;;;;;16.60;4.53;;;10.40;83.70;;;;;;5100361;28;20663;-88
2023/03/26 01:04:33;;;;;;;19.10;5.43;;;10.40;83.40;;;;;;5102154;28;20180;-88
2023/03/26 01:07:15;;;;;;;15.17;4.57;;;10.40;83.50;;;;;;5097831;28;20252;-94
2023/03/26 01:09:49;;;;;;;14.47;4.87;;;10.40;80.30;;;;;;5100868;28;20223;-89
2023/03/26 01:12:21;;;;;;;16.83;4.80;;;10.20;79.20;;;;;;5082766;28;20555;-88
2023/03/26 01:14:48;;;;;;;16.27;5.27;;;10.10;78.20;;;;;;5100288;28;20737;-93
2023/03/26 01:17:14;;;;;;;19.43;5.13;;;10.10;79.30;;;;;;5098740;28;20175;-88
2023/03/26 01:20:05;;;;;;;16.97;4.83;;;10.20;81.50;;;;;;5109068;28;20202;-89
2023/03/26 01:22:38;;;;;;;12.80;4.33;;;10.30;82.40;;;;;;5115416;28;20188;-86
2023/03/26 01:25:09;;;;;;;15.37;4.87;;;10.50;79.90;;;;;;5108891;28;20174;-93
2023/03/26 01:27:47;;;;;;;12.40;4.47;;;10.40;77.60;;;;;;5101200;28;20174;-93
2023/03/26 01:30:36;;;;;;;13.20;3.80;;;10.40;77.80;;;;;;5100763;28;20199;-91
2023/03/26 01:33:32;;;;;;;12.80;3.73;;;10.40;77.00;;;;;;5100438;28;20172;-90
2023/03/26 01:36:12;;;;;;;13.13;4.20;;;10.30;74.40;;;;;;5110334;28;20151;-90
2023/03/26 01:39:04;;;;;;;12.87;4.27;;;10.10;78.70;;;;;;5091659;28;20179;-92
2023/03/26 01:41:43;;;;;;;14.43;3.97;;;10.10;80.60;;;;;;5089147;28;20231;-93
2023/03/26 01:44:34;;;;;;;15.23;3.83;;;10.00;80.30;;;;;;5099236;28;20180;-96
2023/03/26 01:47:00;;;;;;;12.10;4.03;;;10.10;80.70;;;;;;5101166;28;20250;-93
2023/03/26 01:49:30;;;;;;;14.33;3.80;;;10.10;80.60;;;;;;5102216;28;20191;-94
2023/03/26 01:51:58;;;;;;;12.60;3.63;;;10.10;80.40;;;;;;5107345;28;20192;-87
2023/03/26 01:54:27;;;;;;;12.40;3.83;;;10.10;78.70;;;;;;5102772;28;20627;-94
2023/03/26 01:57:17;;;;;;;17.07;4.70;;;10.20;77.90;;;;;;5098967;28;20244;-94
2023/03/26 02:00:09;;;;;;;13.50;3.80;;;10.20;77.30;;;;;;5098185;28;20225;-90
2023/03/26 02:03:16;;;;;;;17.87;4.50;;;10.20;76.50;;;;;;5099604;28;20665;-94
2023/03/26 02:06:06;;;;;;;16.33;4.23;;;10.20;75.10;;;;;;5101063;28;20600;-94
2023/03/26 02:08:40;;;;;;;14.77;4.27;;;10.10;73.10;;;;;;5105908;28;20233;-95
2023/03/26 02:11:29;;;;;;;12.17;3.63;;;10.20;72.60;;;;;;5085185;28;20200;-92
2023/03/26 02:13:57;;;;;;;17.30;4.03;;;10.20;72.50;;;;;;5086079;28;20228;-94
2023/03/26 02:16:23;;;;;;;12.57;4.20;;;10.20;72.00;;;;;;5108620;28;20184;-93
2023/03/26 02:18:54;;;;;;;10.83;3.80;;;10.30;71.40;;;;;;5116365;28;20188;-86
2023/03/26 02:21:25;;;;;;;12.77;4.10;;;10.30;69.10;;;;;;5119600;28;20247;-91
2023/03/26 02:24:01;;;;;;;15.50;4.47;;;10.30;68.10;;;;;;5119839;28;20161;-84
2023/03/26 02:26:34;;;;;;;13.67;4.33;;;10.20;66.20;;;;;;5120679;28;20206;-84
2023/03/26 02:29:01;;;;;;;11.93;3.77;;;10.30;67.60;;;;;;5113501;28;20179;-88
2023/03/26 02:31:31;;;;;;;14.97;4.10;;;10.40;68.50;;;;;;5113467;28;20175;-87
2023/03/26 02:34:14;;;;;;;14.57;3.43;;;10.20;69.40;;;;;;5107594;28;20176;-87
2023/03/26 02:36:41;;;;;;;12.67;3.73;;;10.20;68.10;;;;;;5104161;28;20187;-93
2023/03/26 02:39:09;;;;;;;13.80;4.20;;;10.20;68.60;;;;;;5096840;28;20175;-87
2023/03/26 02:41:38;;;;;;;14.80;4.10;;;10.20;67.50;;;;;;5099214;28;20658;-86
2023/03/26 02:44:07;;;;;;;18.47;4.53;;;10.20;66.90;;;;;;5099697;28;20227;-87
2023/03/26 02:46:39;;;;;;;16.77;4.33;;;10.30;65.90;;;;;;5098725;28;20177;-91
2023/03/26 02:49:05;;;;;;;13.87;4.00;;;10.30;64.20;;;;;;5098449;28;20163;-93
2023/03/26 02:51:33;;;;;;;17.10;4.37;;;10.30;63.20;;;;;;5102243;28;20237;-92
2023/03/26 02:54:00;;;;;;;8.57;3.77;;;10.30;65.60;;;;;;5117137;28;20187;-86
2023/03/26 02:56:27;;;;;;;16.17;4.30;;;10.40;64.60;;;;;;5101931;28;20161;-85
2023/03/26 02:58:56;;;;;;;15.60;4.40;;;10.60;63.20;;;;;;5115803;28;20148;-87
2023/03/26 03:01:22;;;;;;;10.90;3.67;;;10.50;61.50;;;;;;5115555;28;20181;-91
2023/03/26 03:03:48;;;;;;;14.07;3.70;;;10.60;62.80;;;;;;5113455;28;20167;-88
2023/03/26 03:06:17;;;;;;;15.93;4.53;;;10.70;62.60;;;;;;5092218;28;20189;-90
2023/03/26 03:08:44;;;;;;;15.03;4.33;;;10.50;59.70;;;;;;5110928;28;20167;-89
2023/03/26 03:11:25;;;;;;;19.47;4.50;;;10.60;59.30;;;;;;5112828;28;20737;-92
2023/03/26 03:13:54;;;;;;;13.70;4.20;;;10.50;59.60;;;;;;5097234;28;20181;-91
2023/03/26 03:16:20;;;;;;;12.13;3.60;;;10.50;60.30;;;;;;5089740;28;20223;-95
2023/03/26 03:18:56;;;;;;;10.53;3.33;;;10.60;61.30;;;;;;5109853;28;20163;-88
2023/03/26 03:21:25;;;;;;;14.73;3.60;;;10.50;60.70;;;;;;5117767;28;20196;-89
2023/03/26 03:23:54;;;;;;;17.20;4.20;;;10.50;60.00;;;;;;5118412;28;20168;-85
2023/03/26 03:26:26;;;;;;;13.73;3.73;;;10.60;60.70;;;;;;5100897;28;20190;-86
2023/03/26 03:28:56;;;;;;;11.60;3.20;;;10.50;59.70;;;;;;5116787;28;20198;-89
2023/03/26 03:31:27;;;;;;;13.77;3.67;;;10.60;60.30;;;;;;5115871;28;20175;-91
2023/03/26 03:33:58;;;;;;;13.30;3.53;;;10.50;60.40;;;;;;5108623;28;20182;-95
2023/03/26 03:36:26;;;;;;;10.10;3.57;;;10.60;58.90;;;;;;5096175;28;20176;-85
2023/03/26 03:38:52;;;;;;;12.67;4.57;;;10.60;58.30;;;;;;5094809;28;20627;-87
2023/03/26 03:41:22;;;;;;;13.73;3.37;;;10.60;58.10;;;;;;5097144;28;20180;-87
2023/03/26 03:43:48;;;;;;;12.90;4.10;;;10.60;58.40;;;;;;5101638;28;20534;-84
2023/03/26 03:46:14;;;;;;;11.23;3.50;;;10.50;60.00;;;;;;5100686;28;20271;-87
2023/03/26 03:48:42;;;;;;;10.83;3.63;;;10.70;61.10;;;;;;5114934;28;20159;-89
2023/03/26 03:51:10;;;;;;;16.93;4.37;;;10.50;61.00;;;;;;5117878;28;20223;-87
2023/03/26 03:53:35;;;;;;;20.90;4.27;;;10.50;62.10;;;;;;5117807;28;20182;-85
2023/03/26 03:56:01;;;;;;;14.20;3.47;;;10.50;60.70;;;;;;5117684;28;20172;-88
2023/03/26 03:58:29;;;;;;;15.80;3.73;;;10.60;61.70;;;;;;5115197;28;20167;-86
2023/03/26 04:01:03;;;;;;;14.03;3.30;;;10.70;60.80;;;;;;5115895;28;20252;-91
2023/03/26 04:03:29;;;;;;;20.47;5.37;;;10.70;58.50;;;;;;5115745;28;20243;-87
2023/03/26 04:05:59;;;;;;;12.93;3.50;;;10.80;57.00;;;;;;5114621;28;20180;-89
2023/03/26 04:08:29;;;;;;;10.70;3.47;;;10.70;57.50;;;;;;5114546;28;20235;-86
2023/03/26 04:10:54;;;;;;;15.73;3.77;;;10.70;56.80;;;;;;5100765;28;20195;-84
2023/03/26 04:13:21;;;;;;;17.90;3.87;;;10.80;55.40;;;;;;5118114;28;20170;-85
2023/03/26 04:15:48;;;;;;;11.87;3.70;;;11.00;54.60;;;;;;5112928;28;20179;-94
2023/03/26 04:18:15;;;;;;;14.83;3.90;;;10.90;51.80;;;;;;5089288;28;20211;-94
2023/03/26 04:20:46;;;;;;;11.17;3.57;;;10.70;54.60;;;;;;5102781;28;20204;-94
2023/03/26 04:23:14;;;;;;;15.33;3.67;;;10.70;54.90;;;;;;5109483;28;20181;-89
2023/03/26 04:25:47;;;;;;;11.20;3.13;;;10.70;55.50;;;;;;5107700;28;20279;-90
2023/03/26 04:28:41;;;;;;;12.00;3.37;;;10.60;56.20;;;;;;5099171;28;20235;-93
2023/03/26 04:31:12;;;;;;;9.47;3.27;;;10.80;53.90;;;;;;5098211;28;20207;-93
2023/03/26 04:34:04;;;;;;;10.93;3.10;;;10.70;53.10;;;;;;5099840;28;20168;-93
2023/03/26 04:36:32;;;;;;;10.03;3.73;;;10.60;53.70;;;;;;5090170;28;20209;-86
2023/03/26 04:39:02;;;;;;;13.77;3.67;;;10.70;57.10;;;;;;5111255;28;20167;-88
2023/03/26 04:41:28;;;;;;;10.97;3.03;;;10.40;57.50;;;;;;5084714;28;20186;-95
2023/03/26 04:43:55;;;;;;;10.43;3.33;;;10.50;56.50;;;;;;5097733;28;20211;-93
2023/03/26 04:46:22;;;;;;;11.83;3.17;;;10.50;55.10;;;;;;5100665;28;20202;-94
2023/03/26 04:48:50;;;;;;;16.50;3.03;;;10.40;56.30;;;;;;5097263;28;20639;-96
2023/03/26 04:51:17;;;;;;;12.37;3.33;;;10.30;58.00;;;;;;5109692;28;20211;-94
2023/03/26 04:53:58;;;;;;;9.33;2.77;;;10.30;59.50;;;;;;5115876;28;20203;-91
2023/03/26 04:56:54;;;;;;;10.03;3.00;;;10.30;57.80;;;;;;5116875;28;20171;-87
2023/03/26 04:59:28;;;;;;;11.27;3.47;;;10.30;55.30;;;;;;5117757;28;20152;-86
2023/03/26 05:01:56;;;;;;;8.53;2.40;;;10.20;54.30;;;;;;5089028;28;20183;-93
2023/03/26 05:04:23;;;;;;;8.00;2.33;;;10.10;52.60;;;;;;5080603;28;20171;-87
2023/03/26 05:06:49;;;;;;;11.23;2.80;;;10.10;51.70;;;;;;5093979;28;20550;-86
2023/03/26 05:09:15;;;;;;;7.67;3.20;;;10.10;49.20;;;;;;5094890;28;20178;-85
2023/03/26 05:11:42;;;;;;;12.87;2.70;;;10.30;46.70;;;;;;5097178;28;20183;-87
2023/03/26 05:14:08;;;;;;;9.47;2.47;;;10.30;44.30;;;;;;5096330;28;20182;-87
2023/03/26 05:16:35;;;;;;;7.33;2.33;;;10.40;40.00;;;;;;5095262;28;20643;-86
2023/03/26 05:19:12;;;;;;;8.57;2.37;;;10.60;38.70;;;;;;5094929;28;20192;-86
2023/03/26 05:21:41;;;;;;;11.03;2.77;;;10.50;33.70;;;;;;5100476;28;20187;-87
2023/03/26 05:24:07;;;;;;;9.60;2.30;;;10.70;29.70;;;;;;5109859;28;20257;-86
2023/03/26 05:26:35;;;;;;;6.10;2.20;;;10.70;26.40;;;;;;5105869;28;20171;-88
2023/03/26 05:29:03;;;;;;;5.33;1.80;;;10.80;23.50;;;;;;5101939;28;20171;-85
2023/03/26 05:31:30;;;;;;;6.43;1.97;;;10.80;18.00;;;;;;5101627;28;20249;-88
2023/03/26 05:33:59;;;;;;;5.53;2.13;;;10.90;15.30;;;;;;5098319;28;20172;-85
2023/03/26 05:36:27;;;;;;;6.67;1.67;;;10.90;11.70;;;;;;5093992;28;20179;-89
2023/03/26 05:38:53;;;;;;;6.07;3.73;;;11.00;6.90;;;;;;5094893;28;20335;-86
2023/03/26 05:41:21;;;;;;;4.77;1.83;;;10.90;6.40;;;;;;5089730;28;20183;-88
2023/03/26 05:43:48;;;;;;;7.60;2.30;;;10.90;4.40;;;;;;5109670;28;20189;-86
2023/03/26 05:46:16;;;;;;;7.87;2.30;;;10.90;4.60;;;;;;5107963;28;20184;-85
2023/03/26 05:48:42;;;;;;;9.50;2.60;;;10.90;6.50;;;;;;5100883;28;20217;-86
2023/03/26 05:51:08;;;;;;;12.60;5.30;;;10.90;9.30;;;;;;5099729;28;20203;-88
2023/03/26 05:53:34;;;;;;;6.73;2.20;;;10.90;10.30;;;;;;5097786;28;20203;-86
2023/03/26 05:56:00;;;;;;;9.03;2.77;;;10.80;14.50;;;;;;5110685;28;20178;-87
2023/03/26 05:58:32;;;;;;;7.33;2.40;;;11.00;16.50;;;;;;5118634;28;20194;-86
2023/03/26 06:01:07;;;;;;;8.83;2.40;;;10.90;22.00;;;;;;5113224;28;20164;-86
2023/03/26 06:03:38;;;;;;;8.83;2.33;;;10.80;27.70;;;;;;5107211;28;20227;-84
2023/03/26 06:06:14;;;;;;;12.47;2.83;;;10.90;29.50;;;;;;5107838;28;20176;-85
2023/03/26 06:08:47;;;;;;;10.63;2.37;;;10.90;29.90;;;;;;5102052;28;20190;-84
2023/03/26 06:11:15;;;;;;;6.50;2.37;;;10.90;31.80;;;;;;5102987;28;20245;-86
2023/03/26 06:13:41;;;;;;;8.53;2.70;;;10.70;38.50;;;;;;5099942;28;20174;-85
2023/03/26 06:16:09;;;;;;;7.87;2.23;;;10.50;43.20;;;;;;5099202;28;20168;-86
2023/03/26 06:18:35;;;;;;;6.77;2.43;;;10.60;45.40;;;;;;5106642;28;20285;-91
2023/03/26 06:21:01;;;;;;;5.90;2.47;;;10.60;44.00;;;;;;5119306;28;20175;-91
2023/03/26 06:23:27;;;;;;;6.93;2.30;;;10.70;43.30;;;;;;5119445;28;20172;-87
2023/03/26 06:25:53;;;;;;;9.07;2.27;;;10.70;43.80;;;;;;5102936;28;20234;-85
2023/03/26 06:28:25;;;;;;;6.57;1.97;;;10.70;43.80;;;;;;5119376;28;20220;-89
2023/03/26 06:30:51;;;;;;;8.47;2.40;;;10.60;46.20;;;;;;5118504;28;20238;-90
2023/03/26 06:33:21;;;;;;;8.50;1.83;;;10.50;45.90;;;;;;5117879;28;20188;-83
2023/03/26 06:35:48;;;;;;;5.27;2.00;;;10.40;49.70;;;;;;5117982;28;20169;-92
2023/03/26 06:38:15;;;;;;;7.13;2.07;;;10.40;51.80;;;;;;5107762;28;20179;-86
2023/03/26 06:40:50;;;;;;;11.00;2.50;;;10.60;53.70;;;;;;5109636;28;20225;-92
2023/03/26 06:43:16;;;;;;;7.03;2.53;;;10.40;54.30;;;;;;5100363;28;20175;-92
2023/03/26 06:45:43;;;;;;;7.77;2.63;;;10.60;54.50;;;;;;5084753;28;20244;-91
2023/03/26 06:48:12;;;;;;;6.90;2.23;;;10.60;52.60;;;;;;5113148;28;20173;-95
2023/03/26 06:50:38;;;;;;;3.63;1.60;;;10.50;50.10;;;;;;5110971;28;20207;-86
2023/03/26 06:53:10;;;;;;;6.83;1.80;;;10.60;45.30;;;;;;5104530;28;20320;-91
2023/03/26 06:55:40;;;;;;;3.70;1.50;;;10.40;37.40;;;;;;5099115;28;20579;-92
2023/03/26 06:58:06;;;;;;;6.63;1.90;;;10.20;41.40;;;;;;5099045;28;20172;-94
2023/03/26 07:00:32;;;;;;;7.40;1.80;;;10.10;45.20;;;;;;5098541;28;20271;-90
2023/03/26 07:03:03;;;;;;;4.10;1.47;;;10.10;46.90;;;;;;5103267;28;20191;-92
2023/03/26 07:05:30;;;;;;;5.53;1.70;;;10.10;47.90;;;;;;5113443;28;20209;-88
2023/03/26 07:07:57;;;;;;;6.93;1.63;;;10.20;48.90;;;;;;5117666;28;20155;-88
2023/03/26 07:10:23;;;;;;;4.43;1.10;;;10.00;50.10;;;;;;5102106;28;20204;-88
2023/03/26 07:12:48;;;;;;;4.97;1.37;;;9.50;46.90;;;;;;5101786;28;20178;-88
2023/03/26 07:15:17;;;;;;;3.63;1.13;;;9.40;55.20;;;;;;5101448;28;20187;-89
2023/03/26 07:17:53;;;;;;;4.97;1.53;;;9.20;58.50;;;;;;5111739;28;20175;-94
2023/03/26 07:20:39;;;;;;;3.90;1.47;;;9.20;61.30;;;;;;5107381;28;20195;-93
2023/03/26 07:23:20;;;;;;;4.40;1.40;;;9.00;63.60;;;;;;5100236;28;20191;-93
2023/03/26 07:25:47;;;;;;;3.47;1.30;;;8.90;72.30;;;;;;5117367;28;20202;-86
2023/03/26 07:28:38;;;;;;;2.37;1.03;;;9.00;75.80;;;;;;5100765;28;20239;-86
2023/03/26 07:31:33;;;;;;;3.57;1.17;;;8.90;74.00;;;;;;5098700;28;20273;-93
2023/03/26 07:34:11;;;;;;;4.13;1.70;;;8.90;73.40;;;;;;5099926;28;20163;-88
2023/03/26 07:37:04;;;;;;;2.93;1.27;;;9.00;74.50;;;;;;5080437;28;20191;-87
2023/03/26 07:39:35;;;;;;;6.37;1.87;;;9.00;77.30;;;;;;5082261;28;20648;-86
2023/03/26 07:42:10;;;;;;;6.60;1.37;;;9.00;77.70;;;;;;5083949;28;20184;-87
2023/03/26 07:44:51;;;;;;;3.80;1.50;;;9.10;79.80;;;;;;5092096;28;20230;-86
2023/03/26 07:47:56;;;;;;;7.27;1.90;;;9.00;82.90;;;;;;5093776;28;20183;-89
2023/03/26 07:50:30;;;;;;;5.67;1.37;;;8.80;85.00;;;;;;5114449;28;20218;-94
2023/03/26 07:53:05;;;;;;;6.63;1.50;;;9.00;88.50;;;;;;5099615;28;20173;-94
2023/03/26 07:55:50;;;;;;;3.87;1.37;;;9.00;88.60;;;;;;5099937;28;20182;-89
2023/03/26 07:58:48;;;;;;;3.50;1.40;;;8.90;86.00;;;;;;5116508;28;20208;-87
2023/03/26 08:01:31;;;;;;;4.47;1.27;;;8.80;89.20;;;;;;5073808;28;20177;-88
2023/03/26 08:04:31;;;;;;;3.57;1.10;;;8.70;90.10;;;;;;5042193;28;20177;-93
2023/03/26 08:07:51;;;;;;;2.57;1.27;;;8.80;89.60;;;;;;5075409;28;20229;-88
2023/03/26 08:10:57;;;;;;;6.17;1.50;;;8.70;90.80;;;;;;5045407;28;20212;-86
2023/03/26 08:13:51;;;;;;;4.00;1.17;;;8.70;92.70;;;;;;5012771;28;20211;-88
2023/03/26 08:16:39;;;;;;;2.73;0.90;;;8.70;92.10;;;;;;5063211;28;20184;-93
2023/03/26 08:19:24;;;;;;;3.03;1.10;;;8.60;92.90;;;;;;5071727;28;20188;-89
2023/03/26 08:21:54;;;;;;;4.13;1.37;;;8.70;93.30;;;;;;5069470;28;20192;-88
2023/03/26 08:24:45;;;;;;;4.97;1.20;;;8.70;93.20;;;;;;5067268;28;20256;-88
2023/03/26 08:27:48;;;;;;;2.80;1.07;;;8.70;93.00;;;;;;5053320;28;20211;-89
2023/03/26 08:30:25;;;;;;;2.93;1.10;;;8.70;94.40;;;;;;5076633;28;20250;-85
2023/03/26 08:33:19;;;;;;;6.37;1.47;;;8.60;94.70;;;;;;5091366;28;20592;-83
2023/03/26 08:35:52;;;;;;;5.00;1.60;;;8.60;96.50;;;;;;5113299;28;20190;-84
2023/03/26 08:38:21;;;;;;;2.87;1.40;;;8.80;97.80;;;;;;5116473;28;20167;-89
2023/03/26 08:41:09;;;;;;;4.77;1.53;;;8.70;98.40;;;;;;5100233;28;20167;-83
2023/03/26 08:47:32;;;;;;;3.30;1.30;;;8.60;98.80;;;;;;5112705;28;20156;-90
2023/03/26 08:50:32;;;;;;;5.37;1.63;;;8.50;99.90;;;;;;5098629;28;20272;-94
2023/03/26 08:53:45;;;;;;;5.83;1.67;;;8.50;99.90;;;;;;5088208;28;20200;-91
2023/03/26 08:57:03;;;;;;;3.20;1.50;;;8.60;99.90;;;;;;5084723;28;20228;-95
2023/03/26 09:00:05;;;;;;;3.83;1.20;;;8.60;99.90;;;;;;5065246;28;20188;-87
2023/03/26 09:02:44;;;;;;;5.60;1.70;;;8.50;99.90;;;;;;5109027;28;20179;-92
2023/03/26 09:06:01;;;;;;;6.17;1.63;;;8.40;99.90;;;;;;5093917;28;20209;-90
2023/03/26 09:08:47;;;;;;;5.07;1.70;;;8.30;99.90;;;;;;5090537;28;20263;-86
2023/03/26 09:11:43;;;;;;;2.93;1.50;;;8.40;99.90;;;;;;5080136;28;20551;-88
2023/03/26 09:14:42;;;;;;;3.83;1.53;;;8.40;99.90;;;;;;5108356;28;20210;-86
2023/03/26 09:17:50;;;;;;;4.70;1.73;;;8.40;99.90;;;;;;5087336;28;20186;-90
2023/03/26 09:20:49;;;;;;;4.13;1.60;;;8.40;99.90;;;;;;5090827;28;20210;-89
2023/03/26 09:23:37;;;;;;;5.03;2.53;;;8.40;99.90;;;;;;5098375;28;20217;-87
2023/03/26 09:26:26;;;;;;;5.27;2.20;;;8.40;99.90;;;;;;5088232;28;20201;-91
2023/03/26 09:29:11;;;;;;;4.63;1.73;;;8.50;99.90;;;;;;5120091;28;20181;-87
2023/03/26 09:32:10;;;;;;;5.27;2.13;;;8.50;99.90;;;;;;5110274;28;20180;-92
2023/03/26 09:34:45;;;;;;;4.30;1.70;;;8.50;99.90;;;;;;5106341;28;20167;-91
2023/03/26 09:37:48;;;;;;;5.43;2.40;;;8.40;99.90;;;;;;5111755;28;20227;-89
2023/03/26 09:40:28;;;;;;;6.87;2.60;;;8.30;99.90;;;;;;5120605;28;20191;-89
2023/03/26 09:43:26;;;;;;;4.33;1.83;;;8.40;99.90;;;;;;5121724;28;20170;-89
2023/03/26 09:46:16;;;;;;;4.47;2.00;;;8.40;99.90;;;;;;5093653;28;20205;-87
2023/03/26 09:49:06;;;;;;;4.00;1.87;;;8.40;99.90;;;;;;5093505;28;20187;-93
2023/03/26 09:51:50;;;;;;;4.43;1.77;;;8.30;99.90;;;;;;5105128;28;20180;-89
2023/03/26 09:55:07;;;;;;;4.37;1.73;;;8.30;99.90;;;;;;5084983;28;20180;-91
2023/03/26 09:58:16;;;;;;;3.93;1.67;;;8.40;99.90;;;;;;5063677;28;20184;-88
2023/03/26 10:01:09;;;;;;;6.13;1.70;;;8.40;99.90;;;;;;5073586;28;20578;-87
2023/03/26 10:03:49;;;;;;;7.00;2.33;;;8.40;99.90;;;;;;5083209;28;20176;-88
2023/03/26 10:06:20;;;;;;;3.70;1.90;;;8.30;99.90;;;;;;5097615;28;20207;-89
2023/03/26 10:09:05;;;;;;;5.90;1.90;;;8.40;99.90;;;;;;5111199;28;20203;-90
2023/03/26 10:11:47;;;;;;;3.07;1.80;;;8.40;99.90;;;;;;5116147;28;20191;-89
2023/03/26 10:14:38;;;;;;;6.03;2.43;;;8.50;99.90;;;;;;5120772;28;20177;-89
2023/03/26 10:17:40;;;;;;;4.70;1.90;;;8.40;99.90;;;;;;5119979;28;20243;-91
2023/03/26 10:20:18;;;;;;;6.03;1.77;;;8.50;99.90;;;;;;5120517;28;20295;-85
2023/03/26 10:23:05;;;;;;;6.30;1.93;;;8.50;99.90;;;;;;5120260;28;20171;-88
2023/03/26 10:26:20;;;;;;;4.03;1.93;;;8.50;99.90;;;;;;5120815;28;20171;-86
2023/03/26 10:29:03;;;;;;;5.53;2.03;;;8.40;99.90;;;;;;5119862;28;20202;-86
2023/03/26 10:32:05;;;;;;;4.57;1.63;;;8.40;99.90;;;;;;5119989;28;20199;-89
2023/03/26 10:35:02;;;;;;;5.40;1.70;;;8.30;99.90;;;;;;5116838;28;20175;-88
2023/03/26 10:38:05;;;;;;;2.50;1.30;;;8.30;99.90;;;;;;5116127;28;20251;-92
2023/03/26 10:44:33;;;;;;;5.40;1.63;;;8.20;99.90;;;;;;5118965;28;20175;-88
2023/03/26 10:47:40;;;;;;;6.13;2.70;;;8.40;99.90;;;;;;5119724;28;20235;-89
2023/03/26 10:51:16;;;;;;;4.80;2.10;;;8.40;99.90;;;;;;5118595;28;20211;-88
2023/03/26 10:54:09;;;;;;;5.03;1.70;;;8.40;99.90;;;;;;5096375;28;20188;-92
2023/03/26 10:56:44;;;;;;;4.27;2.10;;;8.40;99.90;;;;;;5080983;28;20172;-89
2023/03/26 10:59:14;;;;;;;4.30;1.90;;;8.40;99.90;;;;;;5115870;28;20182;-90
2023/03/26 11:02:32;;;;;;;4.27;1.50;;;8.30;99.90;;;;;;5106641;28;20193;-92
2023/03/26 11:05:14;;;;;;;7.03;2.03;;;8.30;99.90;;;;;;5117812;28;20209;-89
2023/03/26 11:08:05;;;;;;;2.27;1.60;;;8.30;99.90;;;;;;5119613;28;20144;-93
2023/03/26 11:10:57;;;;;;;2.67;1.60;;;8.30;99.90;;;;;;5117364;28;20195;-86
2023/03/26 11:13:51;;;;;;;2.63;1.50;;;8.30;99.90;;;;;;5094413;28;20200;-91
2023/03/26 11:16:43;;;;;;;3.40;1.73;;;8.30;99.90;;;;;;5085588;28;20674;-87
2023/03/26 11:19:24;;;;;;;3.47;1.60;;;8.40;99.90;;;;;;5085794;28;20218;-90
2023/03/26 11:22:19;;;;;;;4.80;1.73;;;8.40;99.90;;;;;;5087947;28;20168;-92
2023/03/26 11:25:25;;;;;;;5.70;2.83;;;8.30;99.90;;;;;;5080216;28;20188;-90
2023/03/26 11:28:26;;;;;;;3.77;1.90;;;8.40;99.90;;;;;;5083004;28;20183;-90
2023/03/26 11:31:13;;;;;;;4.27;2.00;;;8.40;99.90;;;;;;5079648;28;20215;-90
2023/03/26 11:33:43;;;;;;;5.60;2.27;;;8.40;99.90;;;;;;5081230;28;20210;-88
2023/03/26 11:36:28;;;;;;;3.37;2.10;;;8.40;99.90;;;;;;5086171;28;20177;-91
2023/03/26 11:38:59;;;;;;;2.80;1.63;;;8.40;99.90;;;;;;5093317;28;20160;-90
2023/03/26 11:41:31;;;;;;;3.13;1.77;;;8.50;99.90;;;;;;5097061;28;20175;-92
2023/03/26 11:44:06;;;;;;;2.93;1.67;;;8.40;99.90;;;;;;5097242;28;20168;-87
2023/03/26 11:46:41;;;;;;;2.50;1.80;;;8.50;99.90;;;;;;5078168;28;20172;-90
2023/03/26 11:49:15;;;;;;;3.73;2.20;;;8.60;99.90;;;;;;5099102;28;20163;-86
2023/03/26 11:51:42;;;;;;;3.13;1.90;;;8.60;99.90;;;;;;5100890;28;20179;-85
2023/03/26 11:54:12;;;;;;;4.50;2.50;;;8.70;99.90;;;;;;5100263;28;20175;-88
2023/03/26 11:56:53;;;;;;;6.50;2.10;;;8.50;99.90;;;;;;5112907;28;20174;-87
2023/03/26 12:00:16;;;;;;;4.17;2.10;;;8.70;99.90;;;;;;5108188;28;20188;-89
2023/03/26 12:03:00;;;;;;;4.20;2.10;;;8.60;99.90;;;;;;5096218;28;20213;-90
2023/03/26 12:05:32;;;;;;;4.20;1.70;;;8.70;99.90;;;;;;5085738;28;20206;-92
2023/03/26 12:08:20;;;;;;;3.50;1.67;;;8.70;99.90;;;;;;5087854;28;20171;-92
2023/03/26 12:11:00;;;;;;;3.87;1.80;;;8.80;99.90;;;;;;5105160;28;20263;-90
2023/03/26 12:13:37;;;;;;;4.10;2.20;;;8.80;99.90;;;;;;5108953;28;20156;-94
2023/03/26 12:16:15;;;;;;;3.43;1.80;;;9.00;99.90;;;;;;5114867;28;20218;-87
2023/03/26 12:19:17;;;;;;;3.77;2.40;;;8.90;99.90;;;;;;5115428;28;20187;-92
2023/03/26 12:22:30;;;;;;;5.63;2.17;;;9.00;99.90;;;;;;5112187;28;20175;-88
2023/03/26 12:25:21;;;;;;;3.73;2.67;;;8.90;99.90;;;;;;5114622;28;20198;-87
2023/03/26 12:28:18;;;;;;;5.17;2.67;;;9.00;99.90;;;;;;5114586;28;20182;-87
2023/03/26 12:31:29;;;;;;;4.37;2.40;;;9.10;99.90;;;;;;5116738;28;20211;-88
2023/03/26 12:34:30;;;;;;;4.53;2.53;;;9.00;99.90;;;;;;5091163;28;20171;-87
2023/03/26 12:37:32;;;;;;;3.10;2.20;;;9.20;99.90;;;;;;5115424;28;20182;-89
2023/03/26 12:40:38;;;;;;;4.93;2.70;;;8.90;99.90;;;;;;5117710;28;20155;-87
2023/03/26 12:46:53;;;;;;;4.40;2.90;;;8.80;99.90;;;;;;5102848;28;20197;-87
2023/03/26 12:49:58;;;;;;;4.30;2.50;;;8.80;99.90;;;;;;5111555;28;20195;-90
2023/03/26 12:53:29;;;;;;;5.10;2.50;;;9.00;99.90;;;;;;5074894;28;20242;-93
2023/03/26 12:56:37;;;;;;;2.83;1.90;;;8.90;99.90;;;;;;5073688;28;20251;-88
2023/03/26 12:59:55;;;;;;;5.30;2.37;;;8.90;99.90;;;;;;5108868;28;20211;-87
2023/03/26 13:02:58;;;;;;;3.50;1.67;;;8.90;99.90;;;;;;5111933;28;20167;-92
2023/03/26 13:05:50;;;;;;;3.53;2.20;;;9.00;99.90;;;;;;5104143;28;20258;-92
2023/03/26 13:08:49;;;;;;;3.73;2.03;;;9.10;99.90;;;;;;5105259;28;20195;-90
2023/03/26 13:11:43;;;;;;;2.73;2.00;;;9.20;99.90;;;;;;5111339;28;20226;-88
2023/03/26 13:14:56;;;;;;;3.97;2.40;;;9.30;99.90;;;;;;5117073;28;20186;-88
2023/03/26 13:17:55;;;;;;;3.33;1.63;;;9.40;99.90;;;;;;5096345;28;20194;-87
2023/03/26 13:20:56;;;;;;;3.67;2.03;;;9.30;99.90;;;;;;5098957;28;20172;-89
2023/03/26 13:23:50;;;;;;;7.07;2.07;;;9.40;99.90;;;;;;5084739;28;20164;-89
2023/03/26 13:27:08;;;;;;;4.47;1.97;;;9.20;99.90;;;;;;5104258;28;20178;-95
2023/03/26 13:30:22;;;;;;;2.77;1.37;;;9.00;99.90;;;;;;5085912;28;20240;-92
2023/03/26 13:33:24;;;;;;;3.00;1.33;;;9.10;99.90;;;;;;5098184;28;20186;-94
2023/03/26 13:36:01;;;;;;;3.17;1.30;;;9.10;99.90;;;;;;5103992;28;20178;-92
2023/03/26 13:38:39;;;;;;;2.83;1.50;;;9.10;99.90;;;;;;5103571;28;20262;-92
2023/03/26 13:41:22;;;;;;;2.73;1.17;;;9.20;99.90;;;;;;5110266;28;20151;-89
2023/03/26 13:44:06;;;;;;;3.00;1.00;;;9.20;99.90;;;;;;5110825;28;20163;-91
2023/03/26 13:46:47;;;;;;;1.97;1.10;;;9.20;99.90;;;;;;5112385;28;20635;-92
2023/03/26 13:49:35;;;;;;;2.57;1.10;;;9.10;99.90;;;;;;5097973;28;20172;-91
2023/03/26 13:52:08;;;;;;;2.83;1.30;;;9.10;99.90;;;;;;5110167;28;20180;-89
2023/03/26 13:55:11;;;;;;;2.07;1.20;;;9.30;99.90;;;;;;5092068;28;20184;-88
2023/03/26 13:57:44;;;;;;;2.87;1.20;;;9.40;99.90;;;;;;5114074;28;20193;-87
2023/03/26 14:00:20;;;;;;;2.20;1.30;;;9.30;99.90;;;;;;5112322;28;20168;-88
2023/03/26 14:02:54;;;;;;;2.10;1.50;;;9.30;99.90;;;;;;5109546;28;20163;-90
2023/03/26 14:05:44;;;;;;;2.17;1.23;;;9.30;99.90;;;;;;5116447;28;20206;-87
2023/03/26 14:08:40;;;;;;;2.73;1.33;;;9.30;99.90;;;;;;5110506;28;20553;-93